Time;durP1;ratioP1;P1;durP2;ratioP2;P2;SDS_P1;SDS_P2;PMS_P1;PMS_P2;Temp;Humidity;BMP_temperature;BMP_pressure;BME280_temperature;BME280_humidity;BME280_pressure;Samples;Min_cycle;Max_cycle;Signal;HPM_P1;HPM_P2
2022/01/09 00:00:34;;;;;;;1.58;1.10;;;;;;;3.93;79.51;96614.47;2618293;54;20041;-66
2022/01/09 00:03:04;;;;;;;1.58;1.08;;;;;;;3.91;79.60;96609.44;2618205;47;20604;-66
2022/01/09 00:05:37;;;;;;;1.77;1.10;;;;;;;3.96;79.36;96616.69;2618517;47;20033;-66
2022/01/09 00:08:07;;;;;;;1.40;1.08;;;;;;;4.00;79.52;96604.00;2622323;46;20037;-66
2022/01/09 00:10:37;;;;;;;1.42;1.20;;;;;;;4.07;79.51;96589.91;2624391;54;20034;-66
2022/01/09 00:13:06;;;;;;;1.27;1.17;;;;;;;4.08;79.24;96591.53;2624625;54;20565;-67
2022/01/09 00:15:36;;;;;;;1.63;0.75;;;;;;;4.10;79.42;96593.94;2624753;54;20034;-66
2022/01/09 00:18:06;;;;;;;1.00;0.90;;;;;;;4.15;79.82;96589.69;2623974;47;20098;-67
2022/01/09 00:20:38;;;;;;;1.75;0.80;;;;;;;4.19;79.95;96584.84;2624297;39;20436;-66
2022/01/09 00:23:08;;;;;;;1.15;1.05;;;;;;;4.18;79.65;96576.19;2623891;47;20030;-66
2022/01/09 00:25:38;;;;;;;2.72;1.10;;;;;;;4.19;79.80;96577.78;2623266;54;20023;-66
2022/01/09 00:28:07;;;;;;;1.10;1.00;;;;;;;4.22;79.64;96568.75;2620674;47;20035;-66
2022/01/09 00:30:37;;;;;;;2.08;1.10;;;;;;;4.24;80.23;96566.72;2621666;54;20045;-66
2022/01/09 00:33:07;;;;;;;2.55;1.30;;;;;;;4.32;79.86;96553.41;2621456;54;20034;-66
2022/01/09 00:35:39;;;;;;;1.23;1.08;;;;;;;4.36;80.17;96551.97;2620805;54;20046;-66
2022/01/09 00:38:09;;;;;;;1.52;1.10;;;;;;;4.36;80.33;96551.97;2618685;54;20042;-66
2022/01/09 00:40:38;;;;;;;2.08;1.58;;;;;;;4.42;80.38;96547.75;2619010;54;20039;-66
2022/01/09 00:43:09;;;;;;;3.22;1.52;;;;;;;4.44;80.33;96548.31;2618787;54;20077;-66
2022/01/09 00:45:39;;;;;;;3.28;0.90;;;;;;;4.42;80.58;96543.31;2618044;54;20030;-66
2022/01/09 00:48:10;;;;;;;1.13;1.00;;;;;;;4.44;80.57;96543.88;2618490;54;20038;-67
2022/01/09 00:50:43;;;;;;;1.10;0.98;;;;;;;4.51;80.74;96538.63;2621366;47;20022;-66
2022/01/09 00:53:13;;;;;;;1.30;0.70;;;;;;;4.54;81.21;96540.03;2621834;54;20071;-66
2022/01/09 00:55:43;;;;;;;0.98;0.88;;;;;;;4.57;80.94;96540.44;2621359;54;20284;-67
2022/01/09 00:58:13;;;;;;;0.77;0.60;;;;;;;4.58;81.34;96523.72;2621496;54;20026;-67
2022/01/09 01:00:42;;;;;;;1.70;0.85;;;;;;;4.62;81.50;96529.31;2619649;54;20038;-67
2022/01/09 01:03:12;;;;;;;0.90;0.52;;;;;;;4.58;81.64;96526.31;2619895;39;20437;-66
2022/01/09 01:05:45;;;;;;;1.25;0.70;;;;;;;4.63;82.04;96531.72;2619148;54;20057;-66
2022/01/09 01:08:14;;;;;;;1.70;0.55;;;;;;;4.69;81.70;96524.84;2619395;39;20456;-66
2022/01/09 01:10:44;;;;;;;0.73;0.50;;;;;;;4.70;81.89;96522.03;2619318;54;20039;-65
2022/01/09 01:13:13;;;;;;;1.17;0.88;;;;;;;4.72;81.82;96520.00;2618602;54;20039;-66
2022/01/09 01:15:43;;;;;;;1.42;0.60;;;;;;;4.74;82.23;96522.41;2618193;54;20037;-66
2022/01/09 01:18:13;;;;;;;1.00;0.60;;;;;;;4.72;82.28;96530.47;2619241;54;20038;-66
2022/01/09 01:20:45;;;;;;;1.30;0.63;;;;;;;4.79;82.18;96525.19;2619343;54;20533;-65
2022/01/09 01:23:14;;;;;;;0.60;0.52;;;;;;;4.82;82.14;96526.59;2618759;54;20035;-65
2022/01/09 01:25:50;;;;;;;1.25;0.60;;;;;;;4.83;82.30;96521.13;2618844;54;20034;-66
2022/01/09 01:28:20;;;;;;;0.75;0.55;;;;;;;4.84;82.00;96521.94;2619370;39;20486;-66
2022/01/09 01:30:50;;;;;;;0.50;0.50;;;;;;;4.86;82.14;96519.91;2618826;54;20085;-65
2022/01/09 01:33:19;;;;;;;0.60;0.60;;;;;;;4.84;81.94;96525.34;2617801;54;20034;-65
2022/01/09 01:35:52;;;;;;;0.80;0.50;;;;;;;4.79;82.37;96525.19;2618443;54;20074;-65
2022/01/09 01:38:22;;;;;;;1.73;0.63;;;;;;;4.83;82.39;96515.09;2618816;54;20053;-67
2022/01/09 01:40:52;;;;;;;1.30;0.50;;;;;;;4.85;82.63;96529.56;2618772;54;20546;-66
2022/01/09 01:43:22;;;;;;;0.50;0.50;;;;;;;4.85;82.53;96520.91;2617862;54;20060;-66
2022/01/09 01:45:51;;;;;;;0.80;0.45;;;;;;;4.88;82.46;96525.72;2618903;54;20027;-67
2022/01/09 01:48:21;;;;;;;0.50;0.50;;;;;;;4.84;82.67;96522.72;2618526;54;20178;-66
2022/01/09 01:50:53;;;;;;;0.93;0.70;;;;;;;4.90;82.38;96523.72;2618794;54;20073;-66
2022/01/09 01:53:23;;;;;;;0.60;0.60;;;;;;;4.85;82.39;96534.81;2617833;54;20577;-67
2022/01/09 01:55:56;;;;;;;0.70;0.70;;;;;;;4.82;83.16;96529.22;2620243;31;20481;-65
2022/01/09 01:58:27;;;;;;;1.88;0.70;;;;;;;4.82;82.64;96543.09;2618679;54;20034;-67
2022/01/09 02:00:56;;;;;;;0.52;0.52;;;;;;;4.82;83.16;96540.47;2618881;54;20522;-67
2022/01/09 02:03:26;;;;;;;0.90;0.75;;;;;;;4.83;82.74;96541.28;2620036;54;20022;-66
2022/01/09 02:05:59;;;;;;;1.85;0.70;;;;;;;4.86;83.04;96551.34;2620970;54;20146;-65
2022/01/09 02:08:29;;;;;;;0.57;0.52;;;;;;;4.90;82.64;96544.66;2619975;54;20033;-66
2022/01/09 02:10:59;;;;;;;0.40;0.40;;;;;;;4.92;82.30;96555.72;2619094;39;20434;-65
2022/01/09 02:13:28;;;;;;;0.60;0.50;;;;;;;4.90;82.88;96570.84;2618821;54;20027;-66
2022/01/09 02:16:01;;;;;;;0.60;0.50;;;;;;;4.84;82.93;96564.63;2618257;54;20102;-66
2022/01/09 02:18:31;;;;;;;0.47;0.47;;;;;;;4.87;82.61;96569.44;2618944;54;20037;-66
2022/01/09 02:21:03;;;;;;;0.50;0.50;;;;;;;4.83;82.42;96576.09;2618018;54;20027;-66
2022/01/09 02:23:34;;;;;;;1.25;0.60;;;;;;;4.83;82.69;96583.97;2618030;54;20022;-65
2022/01/09 02:26:04;;;;;;;0.90;0.50;;;;;;;4.87;82.78;96584.34;2618447;54;20082;-65
2022/01/09 02:28:34;;;;;;;0.50;0.50;;;;;;;4.83;82.69;96585.78;2618192;54;20042;-65
2022/01/09 02:31:03;;;;;;;0.52;0.43;;;;;;;4.85;82.37;96587.16;2619298;39;20430;-65
2022/01/09 02:33:33;;;;;;;0.40;0.40;;;;;;;4.83;82.47;96598.88;2617834;54;20023;-65
2022/01/09 02:36:06;;;;;;;0.63;0.50;;;;;;;4.87;82.50;96600.06;2618410;54;20546;-66
2022/01/09 02:38:35;;;;;;;0.60;0.60;;;;;;;4.93;82.74;96604.44;2618020;47;20022;-66
2022/01/09 02:41:05;;;;;;;0.45;0.45;;;;;;;4.94;82.62;96606.06;2617799;54;20033;-66
2022/01/09 02:43:35;;;;;;;0.50;0.50;;;;;;;4.97;82.41;96618.72;2618199;47;20035;-66
2022/01/09 02:46:14;;;;;;;0.60;0.50;;;;;;;4.93;82.53;96618.31;2618759;39;20438;-66
2022/01/09 02:48:45;;;;;;;0.75;0.65;;;;;;;4.96;82.57;96631.00;2618111;54;20534;-65
2022/01/09 02:51:18;;;;;;;1.83;0.60;;;;;;;4.94;82.78;96637.47;2618610;54;20570;-66
2022/01/09 02:54:07;;;;;;;1.10;0.50;;;;;;;4.92;82.62;96640.28;2618441;54;20091;-66
2022/01/09 02:56:37;;;;;;;2.30;0.70;;;;;;;4.92;82.92;96653.38;2618334;54;20034;-66
2022/01/09 02:59:07;;;;;;;0.50;0.50;;;;;;;4.95;82.93;96654.78;2618364;54;20046;-66
2022/01/09 03:01:36;;;;;;;0.85;0.50;;;;;;;4.94;82.77;96676.75;2618564;54;20031;-66
2022/01/09 03:04:07;;;;;;;1.48;0.70;;;;;;;4.90;82.93;96689.47;2618844;54;20022;-67
2022/01/09 03:06:39;;;;;;;1.27;0.40;;;;;;;4.89;83.05;96693.06;2618157;54;20560;-66
2022/01/09 03:09:09;;;;;;;0.80;0.50;;;;;;;4.86;83.45;96701.34;2618231;54;20582;-66
2022/01/09 03:11:39;;;;;;;0.30;0.30;;;;;;;4.81;83.07;96703.78;2618154;54;20034;-66
2022/01/09 03:14:10;;;;;;;0.47;0.40;;;;;;;4.77;83.41;96715.66;2618327;54;20041;-66
2022/01/09 03:16:39;;;;;;;0.50;0.50;;;;;;;4.78;83.72;96721.72;2617833;47;20034;-67
2022/01/09 03:19:09;;;;;;;1.08;0.40;;;;;;;4.74;83.42;96726.56;2618245;54;20798;-66
2022/01/09 03:21:41;;;;;;;0.57;0.57;;;;;;;4.71;83.55;96743.47;2618128;54;20086;-66
2022/01/09 03:24:11;;;;;;;0.65;0.50;;;;;;;4.69;84.07;96749.91;2618341;54;20027;-66
2022/01/09 03:26:40;;;;;;;0.45;0.45;;;;;;;4.70;83.31;96762.03;2617917;54;20085;-66
2022/01/09 03:29:10;;;;;;;0.52;0.52;;;;;;;4.71;83.73;96767.03;2618068;54;20035;-66
2022/01/09 03:31:40;;;;;;;0.50;0.50;;;;;;;4.68;83.29;96777.09;2617331;54;20546;-68
2022/01/09 03:34:09;;;;;;;0.73;0.60;;;;;;;4.69;83.28;96789.19;2618034;54;20086;-66
2022/01/09 03:36:42;;;;;;;0.40;0.40;;;;;;;4.70;82.70;96801.28;2617999;54;20070;-66
2022/01/09 03:39:15;;;;;;;0.50;0.50;;;;;;;4.68;82.94;96805.91;2618082;54;20027;-66
2022/01/09 03:41:45;;;;;;;0.52;0.40;;;;;;;4.65;82.86;96814.97;2618044;54;20550;-66
2022/01/09 03:44:14;;;;;;;1.77;0.50;;;;;;;4.62;82.89;96819.81;2618022;54;20031;-66
2022/01/09 03:46:44;;;;;;;0.47;0.40;;;;;;;4.59;83.11;96838.53;2617007;47;20034;-67
2022/01/09 03:49:13;;;;;;;0.40;0.40;;;;;;;4.56;83.21;96844.16;2622152;54;20037;-70
2022/01/09 03:51:50;;;;;;;0.40;0.40;;;;;;;4.53;82.01;96853.25;2625549;39;20415;-71
2022/01/09 03:54:21;;;;;;;1.35;0.43;;;;;;;4.49;81.94;96862.50;2624703;54;20027;-70
2022/01/09 03:56:50;;;;;;;0.32;0.32;;;;;;;4.44;82.11;96868.31;2624682;54;20038;-72
2022/01/09 03:59:21;;;;;;;0.73;0.43;;;;;;;4.42;81.92;96875.56;2624958;54;20042;-70
2022/01/09 04:01:51;;;;;;;0.50;0.50;;;;;;;4.37;82.22;96880.59;2623935;54;20046;-71
2022/01/09 04:04:21;;;;;;;0.30;0.30;;;;;;;4.36;82.20;96886.00;2623943;54;20030;-71
2022/01/09 04:06:53;;;;;;;1.00;0.30;;;;;;;4.33;82.49;96896.91;2624365;47;20031;-71
2022/01/09 04:09:29;;;;;;;0.20;0.20;;;;;;;4.32;82.67;96903.13;2625181;54;20038;-72
2022/01/09 04:12:03;;;;;;;0.40;0.40;;;;;;;4.27;82.62;96908.94;2625747;54;20042;-70
2022/01/09 04:14:34;;;;;;;0.35;0.35;;;;;;;4.28;82.33;96926.25;2627554;39;20478;-70
2022/01/09 04:17:05;;;;;;;0.30;0.30;;;;;;;4.27;82.04;96934.28;2625360;54;20041;-70
2022/01/09 04:19:35;;;;;;;0.40;0.40;;;;;;;4.15;81.68;96947.13;2624320;47;20039;-71
2022/01/09 04:22:07;;;;;;;0.45;0.30;;;;;;;4.05;81.82;96949.34;2624033;54;20022;-70
2022/01/09 04:24:37;;;;;;;0.60;0.50;;;;;;;3.97;82.20;96950.31;2624243;54;20030;-70
2022/01/09 04:27:10;;;;;;;0.30;0.30;;;;;;;3.95;82.33;96958.34;2623587;47;20083;-70
2022/01/09 04:29:39;;;;;;;0.40;0.30;;;;;;;3.94;82.74;96966.38;2625610;39;20555;-73
2022/01/09 04:32:10;;;;;;;0.50;0.40;;;;;;;3.96;83.15;96970.44;2624397;51;20054;-70
2022/01/09 04:34:40;;;;;;;0.30;0.30;;;;;;;4.00;82.97;96975.25;2624624;54;20224;-71
2022/01/09 04:37:13;;;;;;;0.30;0.30;;;;;;;3.95;82.77;96979.25;2624570;54;20042;-71
2022/01/09 04:39:46;;;;;;;0.40;0.40;;;;;;;3.92;83.24;96995.34;2624600;54;20037;-70
2022/01/09 04:42:15;;;;;;;0.85;0.68;;;;;;;3.89;83.28;96995.72;2624840;54;20062;-70
2022/01/09 04:44:45;;;;;;;2.70;0.50;;;;;;;3.88;83.54;97003.78;2624284;54;20034;-70
2022/01/09 04:47:17;;;;;;;1.35;0.85;;;;;;;3.92;83.20;97010.22;2624054;54;20030;-71
2022/01/09 04:49:48;;;;;;;0.60;0.60;;;;;;;3.99;83.07;97016.28;2624201;39;20502;-70
2022/01/09 04:52:25;;;;;;;2.55;0.90;;;;;;;3.92;83.02;97018.88;2625154;54;20585;-71
2022/01/09 04:54:55;;;;;;;1.80;1.02;;;;;;;3.95;83.49;97022.88;2624206;54;20033;-70
2022/01/09 04:57:24;;;;;;;3.58;1.00;;;;;;;4.02;83.42;97026.34;2625194;54;20034;-70
2022/01/09 04:59:54;;;;;;;5.97;1.25;;;;;;;4.01;83.13;97022.13;2625160;54;20038;-71
2022/01/09 05:02:23;;;;;;;3.00;1.10;;;;;;;4.00;83.41;97023.13;2624166;47;20514;-70
2022/01/09 05:04:53;;;;;;;2.53;1.13;;;;;;;4.00;83.38;97030.97;2625121;54;20022;-70
2022/01/09 05:07:25;;;;;;;4.68;1.45;;;;;;;4.05;83.23;97038.25;2623865;47;20035;-70
2022/01/09 05:09:55;;;;;;;3.83;1.45;;;;;;;4.07;83.27;97046.69;2623754;54;20038;-70
2022/01/09 05:12:25;;;;;;;3.90;1.73;;;;;;;4.07;83.45;97038.84;2623477;54;20588;-70
2022/01/09 05:14:54;;;;;;;8.15;2.15;;;;;;;4.12;82.91;97052.13;2623044;54;20034;-70
2022/01/09 05:17:24;;;;;;;10.10;2.50;;;;;;;4.12;82.68;97049.50;2622289;54;20553;-73
2022/01/09 05:19:57;;;;;;;5.95;1.60;;;;;;;4.13;82.67;97061.63;2623352;54;20055;-72
2022/01/09 05:22:30;;;;;;;9.82;2.10;;;;;;;4.15;82.55;97065.63;2622390;54;20041;-72
2022/01/09 05:25:02;;;;;;;4.90;1.93;;;;;;;4.17;82.35;97073.31;2623468;47;20031;-71
2022/01/09 09:38:23;;;;;;;8.75;2.20;;;;;;;4.75;72.98;97570.31;2604908;46;20041;-71
2022/01/09 09:40:52;;;;;;;8.32;2.38;;;;;;;4.75;73.11;97571.13;2626946;54;20027;-72
2022/01/09 09:43:24;;;;;;;7.60;2.72;;;;;;;4.82;72.80;97576.44;2626814;54;20037;-71
2022/01/09 09:45:54;;;;;;;11.63;3.33;;;;;;;4.98;73.38;97581.44;2626055;54;20069;-72
2022/01/09 09:48:25;;;;;;;15.20;3.08;;;;;;;5.11;73.15;97576.31;2625334;39;20448;-72
2022/01/09 09:50:55;;;;;;;8.18;2.38;;;;;;;5.30;72.87;97576.66;2619911;54;20034;-67
2022/01/09 09:53:27;;;;;;;10.95;2.95;;;;;;;5.34;72.27;97576.09;2618843;39;20429;-66
2022/01/09 09:55:57;;;;;;;11.65;2.28;;;;;;;5.36;71.95;97576.72;2618849;54;20065;-67
2022/01/09 09:58:28;;;;;;;12.32;3.58;;;;;;;5.31;71.27;97584.34;2618580;47;20050;-65
2022/01/09 10:01:00;;;;;;;8.38;2.30;;;;;;;5.36;71.51;97581.97;2618842;54;20054;-65
2022/01/09 10:03:31;;;;;;;9.98;2.83;;;;;;;5.38;71.25;97597.47;2618108;51;20023;-66
2022/01/09 10:06:02;;;;;;;10.38;2.65;;;;;;;5.43;71.34;97592.50;2618634;54;20039;-66
2022/01/09 10:08:42;;;;;;;10.13;2.28;;;;;;;5.43;71.36;97600.38;2618575;54;20086;-67
2022/01/09 10:11:16;;;;;;;5.40;1.88;;;;;;;5.35;70.71;97597.88;2618820;54;20042;-66
2022/01/09 10:13:47;;;;;;;5.70;2.30;;;;;;;5.22;70.49;97603.78;2618961;54;20034;-67
2022/01/09 10:16:17;;;;;;;3.83;1.80;;;;;;;5.18;70.95;97595.53;2618711;54;20038;-67
2022/01/09 10:18:48;;;;;;;7.38;2.35;;;;;;;5.21;71.13;97610.03;2618006;54;20045;-67
2022/01/09 10:21:19;;;;;;;7.10;2.25;;;;;;;5.30;71.28;97611.53;2618769;54;20035;-66
2022/01/09 10:24:02;;;;;;;8.10;2.30;;;;;;;5.24;71.25;97604.44;2618283;47;20029;-67
2022/01/09 10:26:34;;;;;;;6.47;2.10;;;;;;;5.20;71.23;97605.81;2617851;54;20034;-68
2022/01/09 10:29:05;;;;;;;5.93;1.70;;;;;;;5.11;71.79;97601.69;2617998;54;20027;-66
2022/01/09 10:31:43;;;;;;;5.25;2.15;;;;;;;5.02;71.52;97613.28;2618921;54;20026;-67
2022/01/09 10:34:16;;;;;;;4.63;1.30;;;;;;;5.01;71.55;97616.91;2618281;54;20058;-67
2022/01/09 10:36:48;;;;;;;5.28;1.50;;;;;;;5.10;71.76;97624.47;2618587;54;20082;-66
2022/01/09 10:39:22;;;;;;;3.50;1.60;;;;;;;5.10;71.67;97632.31;2618835;54;20026;-66
2022/01/09 10:41:56;;;;;;;5.25;1.58;;;;;;;5.04;71.50;97621.78;2618323;47;20081;-66
2022/01/09 10:44:31;;;;;;;4.72;2.00;;;;;;;5.08;71.60;97630.88;2618699;54;20572;-66
2022/01/09 10:47:03;;;;;;;3.22;1.60;;;;;;;5.06;71.53;97631.06;2617774;54;20038;-66
2022/01/09 10:49:41;;;;;;;7.05;1.65;;;;;;;5.12;71.44;97637.38;2618630;54;20031;-67
2022/01/09 10:52:16;;;;;;;6.22;1.92;;;;;;;5.24;71.28;97630.63;2618753;54;20031;-67
2022/01/09 10:54:49;;;;;;;6.68;2.30;;;;;;;5.32;71.13;97637.56;2618012;47;20074;-67
2022/01/09 10:57:22;;;;;;;7.22;2.70;;;;;;;5.28;71.02;97637.13;2618431;54;20046;-65
2022/01/09 10:59:52;;;;;;;38.33;14.05;;;;;;;5.29;71.12;97640.56;2618649;54;20038;-67
2022/01/09 11:02:22;;;;;;;8.13;2.97;;;;;;;5.13;70.71;97631.94;2618677;54;20041;-66
2022/01/09 11:04:52;;;;;;;14.65;4.85;;;;;;;5.15;71.37;97639.63;2618316;47;20138;-67
2022/01/09 11:07:24;;;;;;;17.40;8.02;;;;;;;5.23;71.02;97639.50;2618395;47;20039;-67
2022/01/09 11:09:58;;;;;;;11.98;4.40;;;;;;;5.34;71.39;97644.22;2618338;54;20046;-67
2022/01/09 11:12:34;;;;;;;11.75;4.78;;;;;;;5.46;71.42;97647.97;2618626;54;20035;-66
2022/01/09 11:15:04;;;;;;;18.15;6.53;;;;;;;5.69;71.52;97639.09;2619586;47;20038;-68
2022/01/09 11:17:34;;;;;;;12.00;4.55;;;;;;;5.67;70.22;97639.28;2622305;47;20033;-65
2022/01/09 11:20:04;;;;;;;13.73;4.00;;;;;;;5.63;70.48;97640.66;2623288;54;20053;-67
2022/01/09 11:22:34;;;;;;;8.82;3.28;;;;;;;5.74;70.13;97636.69;2623214;54;20031;-67
2022/01/09 11:25:13;;;;;;;7.88;4.05;;;;;;;6.07;70.24;97634.34;2622748;54;20034;-68
2022/01/09 11:27:54;;;;;;;5.47;2.92;;;;;;;6.19;69.09;97635.41;2619028;54;20038;-67
2022/01/09 11:30:34;;;;;;;6.93;2.95;;;;;;;6.42;67.69;97636.97;2618972;54;20053;-67
2022/01/09 11:33:21;;;;;;;10.45;3.10;;;;;;;6.51;67.81;97624.50;2619880;54;20042;-67
2022/01/09 11:35:58;;;;;;;12.18;2.60;;;;;;;6.39;66.79;97630.28;2620709;54;20030;-65
2022/01/09 11:38:34;;;;;;;8.10;2.50;;;;;;;6.07;66.78;97629.09;2621084;47;20038;-65
2022/01/09 11:41:20;;;;;;;6.03;2.08;;;;;;;5.87;67.22;97635.97;2621263;54;20027;-64
2022/01/09 11:43:54;;;;;;;9.27;1.92;;;;;;;5.71;67.15;97637.06;2621009;54;20050;-65
2022/01/09 11:46:25;;;;;;;9.18;2.72;;;;;;;5.69;67.56;97644.34;2620412;47;20064;-66
2022/01/09 11:49:05;;;;;;;8.90;2.60;;;;;;;5.62;67.98;97646.09;2619069;54;20034;-65
2022/01/09 11:51:37;;;;;;;12.48;2.90;;;;;;;5.70;67.94;97641.50;2619839;39;20406;-65
2022/01/09 11:54:12;;;;;;;6.80;2.80;;;;;;;5.80;68.18;97640.41;2619592;47;20040;-65
2022/01/09 11:57:00;;;;;;;9.90;3.88;;;;;;;5.85;68.29;97636.19;2618349;54;20031;-65
2022/01/09 11:59:54;;;;;;;13.30;3.10;;;;;;;5.78;67.64;97648.44;2619071;54;20033;-65
2022/01/09 12:02:37;;;;;;;10.77;2.60;;;;;;;5.74;67.87;97643.75;2619241;54;20545;-64
2022/01/09 12:05:09;;;;;;;9.27;3.00;;;;;;;5.70;68.04;97648.56;2619131;54;20041;-65
2022/01/09 12:08:09;;;;;;;6.97;2.97;;;;;;;5.60;68.14;97637.63;2618806;54;20565;-65
2022/01/09 12:10:43;;;;;;;11.98;4.60;;;;;;;5.46;68.32;97632.22;2618114;54;20542;-65
2022/01/09 12:13:51;;;;;;;12.90;5.60;;;;;;;5.40;68.85;97633.00;2618786;54;20038;-66
2022/01/09 12:16:54;;;;;;;8.35;2.75;;;;;;;5.46;68.62;97628.81;2618867;54;20042;-66
2022/01/09 12:19:54;;;;;;;13.10;3.72;;;;;;;5.55;68.41;97634.72;2619054;54;20046;-65
2022/01/09 12:23:01;;;;;;;14.57;5.50;;;;;;;5.83;67.94;97640.00;2618954;54;20030;-63
2022/01/09 12:25:55;;;;;;;11.75;4.65;;;;;;;6.14;67.49;97624.69;2618992;54;20038;-64
2022/01/09 12:28:45;;;;;;;10.50;3.22;;;;;;;6.27;67.27;97625.78;2620390;54;20039;-65
2022/01/09 12:31:30;;;;;;;9.43;3.03;;;;;;;6.45;67.28;97620.84;2621592;54;20041;-66
2022/01/09 12:34:05;;;;;;;4.95;2.28;;;;;;;6.49;66.13;97624.69;2623650;54;20062;-65
2022/01/09 12:36:35;;;;;;;10.75;4.05;;;;;;;6.47;66.47;97629.31;2624194;54;20027;-65
2022/01/09 12:39:07;;;;;;;4.18;1.75;;;;;;;6.32;66.14;97621.56;2625289;54;20511;-65
2022/01/09 12:41:42;;;;;;;7.72;2.85;;;;;;;6.37;66.10;97634.94;2625912;46;20038;-64
2022/01/09 12:44:12;;;;;;;16.73;7.85;;;;;;;6.34;66.51;97627.44;2625396;54;20027;-66
2022/01/09 12:46:44;;;;;;;7.07;1.70;;;;;;;6.18;65.97;97622.50;2624765;54;20054;-66
2022/01/09 12:49:17;;;;;;;6.00;1.65;;;;;;;6.28;65.69;97630.81;2624990;54;20026;-65
2022/01/09 12:51:54;;;;;;;5.40;1.87;;;;;;;6.23;65.83;97630.59;2624630;54;20042;-66
2022/01/09 12:54:24;;;;;;;8.45;1.75;;;;;;;6.16;65.85;97629.75;2624986;54;20030;-65
2022/01/09 12:56:54;;;;;;;8.15;1.88;;;;;;;6.03;66.22;97634.91;2623311;54;20050;-63
2022/01/09 12:59:29;;;;;;;6.20;2.08;;;;;;;5.87;66.16;97628.94;2622227;54;20037;-65
2022/01/09 13:02:03;;;;;;;6.53;2.20;;;;;;;5.92;66.55;97623.97;2621907;54;20031;-67
2022/01/09 13:04:36;;;;;;;8.18;2.92;;;;;;;5.96;66.23;97624.41;2621756;54;20141;-65
2022/01/09 13:07:07;;;;;;;5.07;2.17;;;;;;;5.99;66.50;97628.44;2622076;39;20351;-65
2022/01/09 13:09:36;;;;;;;6.32;2.33;;;;;;;6.01;66.38;97626.44;2621729;54;20041;-64
2022/01/09 13:12:07;;;;;;;5.75;1.92;;;;;;;5.92;66.02;97626.59;2621698;54;20145;-64
2022/01/09 13:14:38;;;;;;;5.63;1.70;;;;;;;5.92;66.10;97629.22;2620955;46;20535;-64
2022/01/09 13:17:08;;;;;;;5.47;1.80;;;;;;;5.80;65.83;97630.72;2620603;47;20113;-64
2022/01/09 13:20:00;;;;;;;3.50;1.80;;;;;;;5.68;66.28;97634.84;2621042;54;20553;-66
2022/01/09 13:22:33;;;;;;;8.63;2.53;;;;;;;5.74;66.49;97641.94;2620537;54;20030;-65
2022/01/09 13:25:05;;;;;;;5.90;2.88;;;;;;;5.93;66.27;97633.44;2620033;54;20030;-66
2022/01/09 13:27:37;;;;;;;8.35;2.00;;;;;;;6.02;65.85;97631.50;2619884;54;20046;-66
2022/01/09 13:30:11;;;;;;;6.45;2.00;;;;;;;5.86;66.10;97634.38;2619027;46;20030;-65
2022/01/09 13:32:42;;;;;;;8.02;2.10;;;;;;;5.79;66.03;97651.88;2619859;54;20035;-65
2022/01/09 13:35:15;;;;;;;7.18;2.08;;;;;;;5.77;66.69;97633.72;2620638;54;20113;-66
2022/01/09 13:37:45;;;;;;;14.10;5.85;;;;;;;5.76;67.12;97633.91;2620351;54;20034;-65
2022/01/09 13:40:15;;;;;;;5.38;1.95;;;;;;;5.78;67.68;97637.13;2618875;54;20130;-65
2022/01/09 13:42:48;;;;;;;4.00;2.20;;;;;;;5.82;67.84;97647.06;2618837;54;20026;-65
2022/01/09 13:45:21;;;;;;;7.20;2.78;;;;;;;5.95;67.37;97644.53;2618965;54;20041;-65
2022/01/09 13:47:54;;;;;;;15.25;4.32;;;;;;;5.95;67.64;97656.84;2619797;54;20034;-64
2022/01/09 13:50:29;;;;;;;10.10;4.18;;;;;;;5.97;67.37;97641.75;2618292;54;20038;-66
2022/01/09 13:53:09;;;;;;;7.30;2.72;;;;;;;6.07;67.65;97646.66;2618641;54;20027;-64
2022/01/09 13:55:40;;;;;;;6.63;3.50;;;;;;;6.10;67.68;97646.28;2619033;54;20098;-66
2022/01/09 13:58:16;;;;;;;6.85;3.03;;;;;;;6.07;67.17;97654.53;2618463;54;20057;-64
2022/01/09 14:00:48;;;;;;;5.05;2.33;;;;;;;5.93;67.11;97643.94;2618019;47;20119;-65
2022/01/09 14:03:28;;;;;;;10.20;3.00;;;;;;;5.86;67.19;97640.44;2618769;54;20038;-64
2022/01/09 14:06:01;;;;;;;9.48;2.65;;;;;;;5.78;66.97;97640.56;2618647;54;20045;-65
2022/01/09 14:08:38;;;;;;;6.80;2.38;;;;;;;5.64;67.12;97647.53;2618575;54;20042;-64
2022/01/09 14:11:09;;;;;;;6.78;3.20;;;;;;;5.72;67.54;97651.81;2618635;54;20018;-66
2022/01/09 14:13:43;;;;;;;7.15;2.83;;;;;;;5.95;67.89;97660.28;2618608;54;20039;-66
2022/01/09 14:16:16;;;;;;;4.47;2.00;;;;;;;6.01;67.33;97657.94;2618289;54;20057;-67
2022/01/09 14:18:46;;;;;;;7.95;2.83;;;;;;;6.13;67.40;97666.88;2618490;54;20566;-66
2022/01/09 14:21:19;;;;;;;8.15;2.45;;;;;;;6.17;66.84;97662.88;2617777;54;20026;-66
2022/01/09 14:23:49;;;;;;;8.05;2.85;;;;;;;6.22;66.48;97668.34;2617711;47;20050;-66
2022/01/09 14:26:21;;;;;;;8.23;2.67;;;;;;;6.22;66.88;97665.72;2618136;54;20034;-66
2022/01/09 14:28:53;;;;;;;5.57;2.75;;;;;;;6.16;66.77;97672.56;2618311;54;20037;-67
2022/01/09 14:31:24;;;;;;;9.73;3.72;;;;;;;6.05;66.99;97672.28;2617828;47;20033;-68
2022/01/09 14:33:55;;;;;;;7.22;3.03;;;;;;;6.07;67.01;97672.88;2618500;54;20114;-66
2022/01/09 14:36:32;;;;;;;13.68;4.50;;;;;;;6.02;66.96;97673.47;2618294;54;20617;-66
2022/01/09 14:39:03;;;;;;;11.38;3.45;;;;;;;6.05;67.16;97685.41;2617680;47;20033;-65
2022/01/09 14:41:35;;;;;;;15.40;4.75;;;;;;;5.99;67.23;97683.53;2618257;54;20034;-66
2022/01/09 14:44:07;;;;;;;8.20;2.78;;;;;;;5.86;66.93;97679.75;2617955;47;20029;-65
2022/01/09 14:46:39;;;;;;;8.90;2.88;;;;;;;5.79;66.95;97688.56;2618036;54;20030;-66
2022/01/09 14:49:09;;;;;;;8.43;3.13;;;;;;;5.76;67.35;97684.53;2618261;54;20110;-67
2022/01/09 14:51:42;;;;;;;9.88;3.00;;;;;;;5.84;67.29;97687.03;2618887;39;20402;-65
2022/01/09 14:54:11;;;;;;;7.78;2.60;;;;;;;5.83;67.46;97695.06;2617609;46;20042;-66
2022/01/09 14:56:41;;;;;;;7.30;2.03;;;;;;;5.76;67.12;97695.03;2617245;47;20030;-66
2022/01/09 14:59:13;;;;;;;10.45;3.60;;;;;;;5.68;66.96;97698.59;2617724;47;20551;-66
2022/01/09 15:01:43;;;;;;;8.00;2.63;;;;;;;5.57;66.94;97701.72;2619085;31;20492;-66
2022/01/09 15:04:14;;;;;;;9.80;2.88;;;;;;;5.41;67.34;97700.13;2617501;47;20046;-65
2022/01/09 15:06:46;;;;;;;10.07;3.75;;;;;;;5.29;67.74;97701.63;2618133;54;20062;-66
2022/01/09 15:09:16;;;;;;;11.15;3.38;;;;;;;5.20;67.99;97716.66;2618109;54;20081;-63
2022/01/09 15:11:45;;;;;;;8.60;3.35;;;;;;;5.16;68.18;97711.97;2617877;54;20538;-65
2022/01/09 15:14:15;;;;;;;8.90;2.78;;;;;;;5.15;68.64;97718.22;2617959;54;20078;-68
2022/01/09 15:16:45;;;;;;;9.25;2.97;;;;;;;5.11;68.65;97719.56;2618063;54;20055;-66
2022/01/09 15:19:15;;;;;;;9.90;2.33;;;;;;;5.05;68.68;97722.91;2618148;54;20098;-65
2022/01/09 15:21:48;;;;;;;8.68;2.63;;;;;;;5.00;69.01;97730.53;2618578;54;20058;-65
2022/01/09 15:24:18;;;;;;;8.38;2.80;;;;;;;5.07;68.88;97732.22;2618947;54;20037;-66
2022/01/09 15:26:48;;;;;;;9.38;3.78;;;;;;;5.12;68.74;97736.91;2617798;54;20054;-66
2022/01/09 15:29:17;;;;;;;10.15;3.42;;;;;;;5.06;68.77;97737.63;2618086;54;20042;-66
2022/01/09 15:31:47;;;;;;;9.25;3.22;;;;;;;5.03;68.95;97744.06;2617942;54;20065;-65
2022/01/09 15:34:19;;;;;;;10.98;3.50;;;;;;;4.95;69.16;97752.84;2618484;39;20487;-68
2022/01/09 15:36:51;;;;;;;12.13;3.42;;;;;;;4.89;69.33;97753.56;2617599;54;20613;-66
2022/01/09 15:39:21;;;;;;;7.32;3.10;;;;;;;4.89;69.32;97758.78;2617817;54;20031;-66
2022/01/09 15:41:51;;;;;;;11.25;3.88;;;;;;;4.88;69.39;97762.41;2618319;39;20447;-67
2022/01/09 15:44:23;;;;;;;9.50;3.78;;;;;;;4.91;69.55;97763.88;2617819;54;20030;-65
2022/01/09 15:46:53;;;;;;;7.78;2.50;;;;;;;4.92;69.65;97755.81;2617117;54;20551;-65
2022/01/09 15:49:23;;;;;;;9.32;3.45;;;;;;;4.92;69.88;97763.66;2617904;54;20094;-65
2022/01/09 15:51:55;;;;;;;10.85;3.72;;;;;;;4.89;70.04;97781.53;2618230;54;20031;-65
2022/01/09 15:54:25;;;;;;;14.88;4.25;;;;;;;4.87;70.39;97771.25;2617162;54;20042;-65
2022/01/09 15:56:55;;;;;;;12.68;6.75;;;;;;;4.92;70.21;97775.94;2617554;54;20034;-65
2022/01/09 15:59:25;;;;;;;9.15;3.90;;;;;;;5.01;70.62;97777.47;2617709;54;20074;-66
2022/01/09 16:01:54;;;;;;;9.65;3.80;;;;;;;5.01;70.26;97787.16;2618629;54;20030;-65
2022/01/09 16:04:24;;;;;;;7.10;3.25;;;;;;;4.94;69.81;97792.31;2619150;39;20440;-66
2022/01/09 16:06:57;;;;;;;11.88;4.05;;;;;;;4.93;70.51;97796.72;2618346;54;20041;-64
2022/01/09 16:09:27;;;;;;;7.95;2.65;;;;;;;4.92;70.23;97800.34;2618718;54;20082;-65
2022/01/09 16:11:58;;;;;;;11.98;2.95;;;;;;;4.93;69.92;97809.00;2618928;39;20451;-64
2022/01/09 16:14:27;;;;;;;13.55;3.75;;;;;;;4.88;69.96;97808.72;2618650;54;20027;-65
2022/01/09 16:16:57;;;;;;;6.38;2.58;;;;;;;4.88;70.04;97806.13;2618483;54;20031;-66